M/T Arcadia — SY7849 — position and weather

sailwx.info

Track history (hours):
 
Tides and Currents Weather Stations Pressure Air Temp Water Temp Dewpoint Dewpoint Depression Visibility Wind Speed Wind Dir Waves Ship Positions

M/T Arcadia

Last reported at 2014-Nov-27 12:17 UTC. Time now 2014-Nov-27 16:06 UTC.
Position N 36°38' E 023°46'.

Length 76 m; draft 4.9 m.

Type: Ship. MMSI: 240560000.

Date/timePositionNaut miles runAvg speedWind from/ knotsBaromVisibWave heightAir tempDewpointWater temp
2014-Nov-27 12:17N 36°38' E 023°46'57 8.4
2014-Nov-27 05:32N 37°33' E 023°31'8 8.2
2014-Nov-27 04:33N 37°39' E 023°24'7 7.0
2014-Nov-27 03:33N 37°43' E 023°17'8 8.2
2014-Nov-27 02:33N 37°50' E 023°11'7 6.1
2014-Nov-27 01:27N 37°55' E 023°05'0 0.0
2014-Nov-26 12:09N 37°55' E 023°05'1 0.0
2014-Nov-25 12:32N 37°54' E 023°06'8 8.1
2014-Nov-25 11:33N 37°48' E 023°12'8 8.4
2014-Nov-25 10:33N 37°41' E 023°18'9 8.6
2014-Nov-25 09:34N 37°38' E 023°28'9 8.4
2014-Nov-25 08:32N 37°31' E 023°35'48 7.8
2014-Nov-25 02:22N 37°05' E 024°26'7 9.1
2014-Nov-25 01:33N 37°05' E 024°35'8 7.5
2014-Nov-25 00:33N 37°03' E 024°44'7 7.3
2014-Nov-24 23:33N 36°58' E 024°51'8 7.8
2014-Nov-24 22:33N 36°54' E 025°00'8 8.4
2014-Nov-24 21:33N 36°52' E 025°10'9 8.5
2014-Nov-24 20:33N 36°49' E 025°20'8 8.5
2014-Nov-24 19:33N 36°48' E 025°31'8 8.4
2014-Nov-24 18:33N 36°47' E 025°41'8 7.6
2014-Nov-24 17:33N 36°46' E 025°50'9 9.0
2014-Nov-24 16:33N 36°50' E 026°00'8 8.4
2014-Nov-24 15:33N 36°53' E 026°10'  
2014-Nov-22 08:30N 36°33' E 026°38'7 7.3
2014-Nov-22 07:28N 36°31' E 026°30'7 8.0
2014-Nov-22 06:33N 36°30' E 026°21'8 7.8
2014-Nov-22 05:33N 36°28' E 026°11'8 8.0
2014-Nov-22 04:33N 36°24' E 026°02'8 7.8
2014-Nov-22 03:33N 36°20' E 025°54'8 8.2
2014-Nov-22 02:33N 36°16' E 025°45'8 8.2
2014-Nov-22 01:33N 36°12' E 025°36'9 8.6
2014-Nov-22 00:33N 36°10' E 025°26'8 8.3
2014-Nov-21 23:33N 36°07' E 025°16'8 8.3
2014-Nov-21 22:33N 36°04' E 025°07'9 8.6
2014-Nov-21 21:33N 36°01' E 024°57'9 8.9
2014-Nov-21 20:33N 35°57' E 024°47'9 8.6
2014-Nov-21 19:33N 35°53' E 024°37'9 8.6
2014-Nov-21 18:29N 35°49' E 024°27'105 3.2
2014-Nov-20 09:30N 37°21' E 023°25'16 6.7
2014-Nov-20 07:05N 37°38' E 023°25'23 3.9
2014-Nov-20 01:04N 37°55' E 023°05'0 0.0
2014-Nov-20 00:31N 37°55' E 023°05'0 0.0
2014-Nov-19 23:31N 37°55' E 023°05'0 0.0
2014-Nov-19 22:31N 37°55' E 023°05'0 0.0
2014-Nov-19 21:31N 37°55' E 023°05'0 0.0
2014-Nov-19 20:31N 37°55' E 023°05'0 0.0
2014-Nov-19 19:25N 37°55' E 023°05'0 0.0
2014-Nov-19 18:31N 37°55' E 023°05'0 0.0
2014-Nov-19 17:31N 37°55' E 023°05'0 0.0
2014-Nov-19 16:31N 37°55' E 023°05'0 0.0
2014-Nov-19 15:28N 37°55' E 023°05'1 0.1
2014-Nov-19 09:21N 37°55' E 023°06'0 0.0
2014-Nov-19 05:06N 37°55' E 023°06'0 0.0
2014-Nov-19 04:09N 37°55' E 023°06'0 0.0
2014-Nov-19 02:33N 37°55' E 023°06'0 0.0
2014-Nov-19 01:27N 37°55' E 023°06'0 0.0
2014-Nov-19 00:24N 37°55' E 023°06'0 0.0
2014-Nov-18 23:30N 37°55' E 023°06'0 0.0
2014-Nov-18 22:27N 37°55' E 023°06'0 0.0
2014-Nov-18 21:33N 37°55' E 023°06'0 0.0
2014-Nov-18 20:21N 37°55' E 023°06'0 0.0
2014-Nov-18 19:18N 37°55' E 023°06'0 0.0
2014-Nov-18 18:30N 37°55' E 023°06'0 0.0
2014-Nov-18 17:18N 37°55' E 023°06'0 0.0
2014-Nov-18 15:33N 37°55' E 023°06'0 0.0
2014-Nov-18 10:27N 37°55' E 023°06'0 0.0
2014-Nov-18 09:15N 37°55' E 023°06'0 0.0
2014-Nov-17 21:27N 37°55' E 023°06'0 0.0
2014-Nov-17 20:06N 37°55' E 023°06'0 0.0
2014-Nov-17 18:06N 37°55' E 023°06'0 0.0
2014-Nov-17 17:12N 37°55' E 023°06'0 0.0
2014-Nov-17 12:27N 37°55' E 023°06'  
Track history (hours):
 
Tides and Currents Weather Stations Pressure Air Temp Water Temp Dewpoint Dewpoint Depression Visibility Wind Speed Wind Dir Waves Ship Positions

M/T Arcadia

Last reported at 2014-Nov-27 12:17 UTC. Time now 2014-Nov-27 16:07 UTC.
Position N 36°38' E 023°46'.

Length 76 m; draft 4.9 m.

Type: Ship. MMSI: 240560000.

Date/timePositionNaut miles runAvg speedWind from/ knotsBaromVisibWave heightAir tempDewpointWater temp
2014-Nov-27 12:17N 36°38' E 023°46'57 8.4
2014-Nov-27 05:32N 37°33' E 023°31'8 8.2
2014-Nov-27 04:33N 37°39' E 023°24'7 7.0
2014-Nov-27 03:33N 37°43' E 023°17'8 8.2
2014-Nov-27 02:33N 37°50' E 023°11'7 6.1
2014-Nov-27 01:27N 37°55' E 023°05'0 0.0
2014-Nov-26 12:09N 37°55' E 023°05'1 0.0
2014-Nov-25 12:32N 37°54' E 023°06'8 8.1
2014-Nov-25 11:33N 37°48' E 023°12'8 8.4
2014-Nov-25 10:33N 37°41' E 023°18'9 8.6
2014-Nov-25 09:34N 37°38' E 023°28'9 8.4
2014-Nov-25 08:32N 37°31' E 023°35'48 7.8
2014-Nov-25 02:22N 37°05' E 024°26'7 9.1
2014-Nov-25 01:33N 37°05' E 024°35'8 7.5
2014-Nov-25 00:33N 37°03' E 024°44'7 7.3
2014-Nov-24 23:33N 36°58' E 024°51'8 7.8
2014-Nov-24 22:33N 36°54' E 025°00'8 8.4
2014-Nov-24 21:33N 36°52' E 025°10'9 8.5
2014-Nov-24 20:33N 36°49' E 025°20'8 8.5
2014-Nov-24 19:33N 36°48' E 025°31'8 8.4
2014-Nov-24 18:33N 36°47' E 025°41'8 7.6
2014-Nov-24 17:33N 36°46' E 025°50'9 9.0
2014-Nov-24 16:33N 36°50' E 026°00'8 8.4
2014-Nov-24 15:33N 36°53' E 026°10'  
2014-Nov-22 08:30N 36°33' E 026°38'7 7.3
2014-Nov-22 07:28N 36°31' E 026°30'7 8.0
2014-Nov-22 06:33N 36°30' E 026°21'8 7.8
2014-Nov-22 05:33N 36°28' E 026°11'8 8.0
2014-Nov-22 04:33N 36°24' E 026°02'8 7.8
2014-Nov-22 03:33N 36°20' E 025°54'8 8.2
2014-Nov-22 02:33N 36°16' E 025°45'8 8.2
2014-Nov-22 01:33N 36°12' E 025°36'9 8.6
2014-Nov-22 00:33N 36°10' E 025°26'8 8.3
2014-Nov-21 23:33N 36°07' E 025°16'8 8.3
2014-Nov-21 22:33N 36°04' E 025°07'9 8.6
2014-Nov-21 21:33N 36°01' E 024°57'9 8.9
2014-Nov-21 20:33N 35°57' E 024°47'9 8.6
2014-Nov-21 19:33N 35°53' E 024°37'9 8.6
2014-Nov-21 18:29N 35°49' E 024°27'105 3.2
2014-Nov-20 09:30N 37°21' E 023°25'16 6.7
2014-Nov-20 07:05N 37°38' E 023°25'23 3.9
2014-Nov-20 01:04N 37°55' E 023°05'0 0.0
2014-Nov-20 00:31N 37°55' E 023°05'0 0.0
2014-Nov-19 23:31N 37°55' E 023°05'0 0.0
2014-Nov-19 22:31N 37°55' E 023°05'0 0.0
2014-Nov-19 21:31N 37°55' E 023°05'0 0.0
2014-Nov-19 20:31N 37°55' E 023°05'0 0.0
2014-Nov-19 19:25N 37°55' E 023°05'0 0.0
2014-Nov-19 18:31N 37°55' E 023°05'0 0.0
2014-Nov-19 17:31N 37°55' E 023°05'0 0.0
2014-Nov-19 16:31N 37°55' E 023°05'0 0.0
2014-Nov-19 15:28N 37°55' E 023°05'1 0.1
2014-Nov-19 09:21N 37°55' E 023°06'0 0.0
2014-Nov-19 05:06N 37°55' E 023°06'0 0.0
2014-Nov-19 04:09N 37°55' E 023°06'0 0.0
2014-Nov-19 02:33N 37°55' E 023°06'0 0.0
2014-Nov-19 01:27N 37°55' E 023°06'0 0.0
2014-Nov-19 00:24N 37°55' E 023°06'0 0.0
2014-Nov-18 23:30N 37°55' E 023°06'0 0.0
2014-Nov-18 22:27N 37°55' E 023°06'0 0.0
2014-Nov-18 21:33N 37°55' E 023°06'0 0.0
2014-Nov-18 20:21N 37°55' E 023°06'0 0.0
2014-Nov-18 19:18N 37°55' E 023°06'0 0.0
2014-Nov-18 18:30N 37°55' E 023°06'0 0.0
2014-Nov-18 17:18N 37°55' E 023°06'0 0.0
2014-Nov-18 15:33N 37°55' E 023°06'0 0.0
2014-Nov-18 10:27N 37°55' E 023°06'0 0.0
2014-Nov-18 09:15N 37°55' E 023°06'0 0.0
2014-Nov-17 21:27N 37°55' E 023°06'0 0.0
2014-Nov-17 20:06N 37°55' E 023°06'0 0.0
2014-Nov-17 18:06N 37°55' E 023°06'0 0.0
2014-Nov-17 17:12N 37°55' E 023°06'0 0.0
2014-Nov-17 12:27N 37°55' E 023°06'  

Dump ship's entire track history